Time;durP1;ratioP1;P1;durP2;ratioP2;P2;SDS_P1;SDS_P2;PMS_P1;PMS_P2;Temp;Humidity;BMP_temperature;BMP_pressure;BME280_temperature;BME280_humidity;BME280_pressure;Samples;Min_cycle;Max_cycle;Signal;HPM_P1;HPM_P2
2023/09/05 00:01:56;;;;;;;1.77;1.67;;;15.70;99.90;;;;;;4986847;28;20041;-89
2023/09/05 00:04:22;;;;;;;1.80;1.70;;;15.60;99.90;;;;;;4990353;28;20112;-89
2023/09/05 00:06:47;;;;;;;1.75;1.65;;;15.60;99.90;;;;;;4985275;28;20052;-88
2023/09/05 00:09:15;;;;;;;1.65;1.55;;;15.50;99.90;;;;;;4989163;28;20074;-88
2023/09/05 00:11:40;;;;;;;1.65;1.55;;;15.50;99.90;;;;;;4998096;28;20057;-88
2023/09/05 00:14:06;;;;;;;1.50;1.40;;;15.40;99.90;;;;;;5007825;28;20099;-89
2023/09/05 00:16:32;;;;;;;1.60;1.50;;;15.30;99.90;;;;;;5002765;28;20062;-89
2023/09/05 00:18:58;;;;;;;1.45;1.40;;;15.30;99.90;;;;;;4988834;28;20462;-90
2023/09/05 00:21:23;;;;;;;1.45;1.38;;;15.30;99.90;;;;;;5005066;28;20049;-89
2023/09/05 00:23:49;;;;;;;1.30;1.30;;;15.30;99.90;;;;;;5003376;28;20037;-89
2023/09/05 00:26:15;;;;;;;1.30;1.30;;;15.40;99.90;;;;;;5003618;28;20128;-89
2023/09/05 00:28:42;;;;;;;1.30;1.30;;;15.40;99.90;;;;;;5004234;28;20136;-89
2023/09/05 00:31:10;;;;;;;1.25;1.25;;;15.40;99.90;;;;;;5008628;28;20176;-88
2023/09/05 00:33:36;;;;;;;1.23;1.23;;;15.50;99.90;;;;;;5004745;28;20100;-87
2023/09/05 00:36:03;;;;;;;1.30;1.30;;;15.40;99.90;;;;;;4989725;28;20218;-87
2023/09/05 00:38:29;;;;;;;1.30;1.30;;;15.50;99.90;;;;;;5004894;28;20091;-89
2023/09/05 00:40:55;;;;;;;1.70;1.60;;;15.40;99.90;;;;;;4988090;28;20034;-87
2023/09/05 00:43:21;;;;;;;1.30;1.30;;;15.40;99.90;;;;;;5004748;28;20038;-89
2023/09/05 00:45:49;;;;;;;1.30;1.30;;;15.40;99.90;;;;;;5004816;28;20072;-90
2023/09/05 00:48:27;;;;;;;1.20;1.20;;;15.40;99.90;;;;;;5005127;28;20042;-89
2023/09/05 00:50:56;;;;;;;1.25;1.25;;;15.30;99.90;;;;;;5000076;28;20048;-89
2023/09/05 00:53:26;;;;;;;1.25;1.25;;;15.20;99.90;;;;;;4986396;28;20045;-89
2023/09/05 00:55:52;;;;;;;1.23;1.23;;;15.20;99.90;;;;;;5004341;28;20130;-88
2023/09/05 00:58:19;;;;;;;1.20;1.20;;;15.20;99.90;;;;;;5020218;28;20046;-89
2023/09/05 01:00:44;;;;;;;1.15;1.15;;;15.10;99.90;;;;;;4985670;28;20147;-89
2023/09/05 01:03:10;;;;;;;1.13;1.13;;;15.30;99.90;;;;;;5002665;28;20087;-88
2023/09/05 01:05:41;;;;;;;1.15;1.15;;;15.20;99.90;;;;;;5000116;28;20053;-88
2023/09/05 01:08:15;;;;;;;1.10;1.10;;;15.10;99.90;;;;;;4990238;28;20108;-88
2023/09/05 01:11:00;;;;;;;1.08;1.08;;;15.20;99.90;;;;;;5003244;28;20442;-88
2023/09/05 01:13:27;;;;;;;1.13;1.13;;;15.30;99.90;;;;;;4999792;28;20049;-90
2023/09/05 01:15:53;;;;;;;1.13;1.13;;;15.40;99.90;;;;;;5005143;28;20049;-89
2023/09/05 01:18:20;;;;;;;1.13;1.13;;;15.30;99.90;;;;;;5005132;28;20076;-88
2023/09/05 01:20:59;;;;;;;1.20;1.20;;;15.40;99.90;;;;;;5001978;28;20852;-88
2023/09/05 01:23:34;;;;;;;1.15;1.15;;;15.40;99.90;;;;;;5019968;28;20517;-89
2023/09/05 01:26:00;;;;;;;1.15;1.15;;;15.40;99.90;;;;;;4993805;28;20125;-89
2023/09/05 01:28:26;;;;;;;1.23;1.23;;;15.40;99.90;;;;;;5007416;28;20124;-89
2023/09/05 01:30:53;;;;;;;1.27;1.27;;;15.40;99.90;;;;;;5004002;28;20053;-89
2023/09/05 01:33:18;;;;;;;1.25;1.25;;;15.40;99.90;;;;;;5003945;28;20092;-89
2023/09/05 01:35:44;;;;;;;1.20;1.20;;;15.40;99.90;;;;;;5003764;28;20061;-89
2023/09/05 01:38:10;;;;;;;1.33;1.33;;;15.40;99.90;;;;;;4985484;28;20045;-89
2023/09/05 01:40:36;;;;;;;1.23;1.23;;;15.50;99.90;;;;;;5003498;28;20128;-88
2023/09/05 01:43:02;;;;;;;1.30;1.30;;;15.40;99.90;;;;;;4988619;28;20156;-89
2023/09/05 01:45:27;;;;;;;1.25;1.25;;;15.50;99.90;;;;;;5002556;28;20381;-88
2023/09/05 01:47:53;;;;;;;1.27;1.27;;;15.50;99.90;;;;;;5002612;28;20049;-88
2023/09/05 01:50:21;;;;;;;1.25;1.25;;;15.40;99.90;;;;;;4991327;28;20155;-88
2023/09/05 01:52:47;;;;;;;1.20;1.20;;;15.40;99.90;;;;;;5005433;28;20096;-88
2023/09/05 01:55:13;;;;;;;1.20;1.20;;;15.30;99.90;;;;;;4999579;28;20062;-87
2023/09/05 01:57:38;;;;;;;1.10;1.10;;;15.30;99.90;;;;;;5002111;28;20076;-87
2023/09/05 02:00:04;;;;;;;1.33;1.33;;;15.30;99.90;;;;;;5003993;28;20049;-88
2023/09/05 02:02:30;;;;;;;1.02;1.02;;;15.20;99.90;;;;;;5006185;28;20550;-89
2023/09/05 02:04:56;;;;;;;1.00;1.00;;;15.20;99.90;;;;;;5006308;28;20132;-88
2023/09/05 02:07:21;;;;;;;1.10;1.10;;;15.20;99.90;;;;;;5007248;28;20293;-88
2023/09/05 02:09:47;;;;;;;1.10;1.10;;;15.20;99.90;;;;;;4987593;28;20072;-88
2023/09/05 02:12:14;;;;;;;1.00;1.00;;;15.20;99.90;;;;;;4988600;28;20168;-88
2023/09/05 02:14:45;;;;;;;1.00;1.00;;;15.20;99.90;;;;;;5006373;28;20045;-89
2023/09/05 02:17:12;;;;;;;1.00;1.00;;;15.10;99.90;;;;;;5006406;28;20100;-88
2023/09/05 02:19:37;;;;;;;0.90;0.90;;;15.10;99.90;;;;;;5005502;28;20486;-88
2023/09/05 02:22:03;;;;;;;0.80;0.80;;;15.00;99.90;;;;;;4990366;28;20050;-88
2023/09/05 02:24:29;;;;;;;0.90;0.90;;;15.00;99.90;;;;;;5005808;28;20809;-88
2023/09/05 02:26:56;;;;;;;0.85;0.85;;;14.90;99.90;;;;;;5007928;28;20057;-87
2023/09/05 02:29:25;;;;;;;0.80;0.80;;;14.90;99.90;;;;;;4988508;28;20047;-89
2023/09/05 02:31:51;;;;;;;0.90;0.90;;;14.80;99.90;;;;;;5004742;28;20449;-88
2023/09/05 02:34:17;;;;;;;0.80;0.80;;;14.80;99.90;;;;;;5008300;28;20093;-88
2023/09/05 02:36:42;;;;;;;0.80;0.80;;;14.90;99.90;;;;;;5004328;28;20041;-88
2023/09/05 02:39:08;;;;;;;0.80;0.80;;;14.90;99.90;;;;;;5006721;28;20059;-87
2023/09/05 02:41:34;;;;;;;0.80;0.80;;;15.00;99.90;;;;;;4988784;28;20806;-87
2023/09/05 02:43:59;;;;;;;0.80;0.80;;;14.90;99.90;;;;;;5006541;28;20080;-87
2023/09/05 02:46:25;;;;;;;0.80;0.80;;;15.00;99.90;;;;;;5005329;28;20045;-89
2023/09/05 02:48:51;;;;;;;0.80;0.80;;;14.90;99.90;;;;;;4990835;28;20049;-90
2023/09/05 02:51:16;;;;;;;0.80;0.80;;;15.00;99.90;;;;;;5006881;28;20069;-89
2023/09/05 02:53:42;;;;;;;0.80;0.80;;;14.90;99.90;;;;;;4993043;28;20432;-88
2023/09/05 02:56:08;;;;;;;0.80;0.80;;;14.90;99.90;;;;;;5006111;28;20069;-88
2023/09/05 02:58:34;;;;;;;0.70;0.70;;;14.80;99.90;;;;;;5006676;28;20460;-89
2023/09/05 03:01:01;;;;;;;0.70;0.70;;;14.80;99.90;;;;;;5008471;28;20045;-88
2023/09/05 03:03:27;;;;;;;0.80;0.80;;;14.70;99.90;;;;;;5009193;28;20045;-89
2023/09/05 03:05:53;;;;;;;0.80;0.80;;;14.70;99.90;;;;;;5012008;28;20056;-89
2023/09/05 03:08:19;;;;;;;0.70;0.70;;;14.70;99.90;;;;;;5007704;28;20392;-89
2023/09/05 03:10:51;;;;;;;0.77;0.77;;;14.70;99.90;;;;;;5007341;28;20084;-89
2023/09/05 03:13:17;;;;;;;0.80;0.80;;;14.70;99.90;;;;;;4990886;28;20049;-88
2023/09/05 03:15:43;;;;;;;0.80;0.80;;;14.80;99.90;;;;;;5007330;28;20041;-89
2023/09/05 03:18:09;;;;;;;0.80;0.80;;;14.70;99.90;;;;;;5006701;28;20561;-89
2023/09/05 03:20:34;;;;;;;0.70;0.70;;;14.60;99.90;;;;;;5011243;28;20069;-90
2023/09/05 03:23:00;;;;;;;0.80;0.80;;;14.60;99.90;;;;;;5009465;28;20081;-91
2023/09/05 03:25:26;;;;;;;0.80;0.80;;;14.60;99.90;;;;;;4991436;28;20097;-90
2023/09/05 03:27:51;;;;;;;0.80;0.80;;;14.50;99.90;;;;;;5007841;28;20038;-89
2023/09/05 03:30:17;;;;;;;0.70;0.70;;;14.60;99.90;;;;;;5008293;28;20489;-89
2023/09/05 03:32:43;;;;;;;0.70;0.70;;;14.40;99.90;;;;;;5013399;28;20050;-90
2023/09/05 03:35:08;;;;;;;0.80;0.80;;;14.40;99.90;;;;;;4994571;28;20120;-89
2023/09/05 03:37:34;;;;;;;0.70;0.70;;;14.40;99.90;;;;;;5011304;28;20054;-88
2023/09/05 03:40:00;;;;;;;0.80;0.80;;;14.50;99.90;;;;;;4994357;28;20064;-89
2023/09/05 03:42:26;;;;;;;0.70;0.70;;;14.50;99.90;;;;;;5014751;28;20053;-88
2023/09/05 03:44:52;;;;;;;0.70;0.70;;;14.40;99.90;;;;;;5011203;28;20045;-89
2023/09/05 03:47:17;;;;;;;0.70;0.70;;;14.50;99.90;;;;;;5009126;28;20060;-91
2023/09/05 03:49:43;;;;;;;0.70;0.70;;;14.40;99.90;;;;;;5010605;28;20073;-92
2023/09/05 03:52:09;;;;;;;0.70;0.70;;;14.60;99.90;;;;;;4995443;28;20046;-91
2023/09/05 03:54:34;;;;;;;0.60;0.60;;;14.50;99.90;;;;;;4995071;28;20546;-91
2023/09/05 03:57:00;;;;;;;0.68;0.68;;;14.60;99.90;;;;;;4994318;28;20045;-90
2023/09/05 03:59:25;;;;;;;0.70;0.70;;;14.50;99.90;;;;;;4993438;28;20045;-90
2023/09/05 04:01:51;;;;;;;0.80;0.80;;;14.40;99.90;;;;;;4995772;28;20060;-91
2023/09/05 04:04:17;;;;;;;0.80;0.80;;;14.50;99.90;;;;;;4993769;28;20044;-90
2023/09/05 04:06:43;;;;;;;0.80;0.80;;;14.50;99.90;;;;;;4993442;28;20084;-90
2023/09/05 04:09:08;;;;;;;0.70;0.70;;;14.50;99.90;;;;;;5009230;28;20100;-89
2023/09/05 04:11:34;;;;;;;0.70;0.70;;;14.30;99.90;;;;;;4991912;28;20052;-90
2023/09/05 04:14:00;;;;;;;0.80;0.80;;;14.30;99.90;;;;;;5011151;28;20037;-89
2023/09/05 04:16:25;;;;;;;0.80;0.80;;;14.20;99.90;;;;;;5009251;28;20071;-89
2023/09/05 04:18:51;;;;;;;0.80;0.80;;;14.20;99.90;;;;;;5010825;28;20141;-90
2023/09/05 04:21:17;;;;;;;0.80;0.80;;;14.20;99.90;;;;;;5009075;28;20124;-90
2023/09/05 04:23:42;;;;;;;0.80;0.80;;;14.30;99.90;;;;;;4994956;28;20041;-89
2023/09/05 04:26:08;;;;;;;0.90;0.90;;;14.20;99.90;;;;;;5008881;28;20479;-90
2023/09/05 04:28:34;;;;;;;0.80;0.80;;;14.20;99.90;;;;;;5029834;28;20136;-89
2023/09/05 04:31:04;;;;;;;0.90;0.90;;;14.30;99.90;;;;;;5008206;28;20052;-90
2023/09/05 04:33:37;;;;;;;0.90;0.90;;;14.30;99.90;;;;;;4991866;28;20045;-89
2023/09/05 04:36:05;;;;;;;0.90;0.90;;;14.30;99.90;;;;;;5011582;28;20494;-89
2023/09/05 04:38:31;;;;;;;0.82;0.82;;;14.30;99.90;;;;;;4990771;28;20057;-88
2023/09/05 04:41:01;;;;;;;0.80;0.80;;;14.30;99.90;;;;;;5008876;28;20045;-89
2023/09/05 04:43:27;;;;;;;0.90;0.90;;;14.30;99.90;;;;;;5008711;28;20064;-88
2023/09/05 04:45:56;;;;;;;0.80;0.80;;;14.20;99.90;;;;;;4986170;28;20783;-89
2023/09/05 04:48:25;;;;;;;0.80;0.80;;;14.30;99.90;;;;;;5004410;28;20060;-91
2023/09/05 04:50:51;;;;;;;0.80;0.80;;;14.10;99.90;;;;;;4994830;28;20053;-89
2023/09/05 04:53:16;;;;;;;0.85;0.85;;;14.40;99.90;;;;;;5005544;28;20038;-89
2023/09/05 04:55:42;;;;;;;0.80;0.80;;;14.20;99.90;;;;;;5008962;28;20049;-89
2023/09/05 04:58:09;;;;;;;0.80;0.80;;;14.20;99.90;;;;;;5008550;28;20033;-88
2023/09/05 05:00:35;;;;;;;0.88;0.88;;;14.20;99.90;;;;;;5008477;28;20525;-89
2023/09/05 05:03:00;;;;;;;0.80;0.80;;;14.50;99.90;;;;;;4993399;28;20049;-90
2023/09/05 05:05:26;;;;;;;0.80;0.80;;;14.50;99.90;;;;;;5011027;28;20034;-89
2023/09/05 05:07:52;;;;;;;0.80;0.80;;;14.50;99.90;;;;;;5007748;28;20053;-86
2023/09/05 05:10:17;;;;;;;0.70;0.70;;;14.40;99.90;;;;;;5011395;28;20081;-90
2023/09/05 05:12:43;;;;;;;0.70;0.70;;;14.60;99.90;;;;;;5011240;28;20142;-90
2023/09/05 05:15:09;;;;;;;0.70;0.70;;;14.60;99.90;;;;;;5011133;28;20788;-91
2023/09/05 05:17:36;;;;;;;0.70;0.70;;;14.70;99.90;;;;;;4996093;28;20048;-88
2023/09/05 05:20:04;;;;;;;0.60;0.60;;;14.70;99.90;;;;;;4996024;28;21594;-90
2023/09/05 05:22:30;;;;;;;0.60;0.60;;;14.60;99.90;;;;;;5010801;28;20053;-91
2023/09/05 05:24:56;;;;;;;0.70;0.70;;;14.90;99.90;;;;;;4991195;28;20411;-90
2023/09/05 05:27:25;;;;;;;0.60;0.60;;;15.90;99.90;;;;;;5010249;28;20728;-90
2023/09/05 05:29:51;;;;;;;0.50;0.50;;;17.20;99.90;;;;;;5014848;28;20073;-90
2023/09/05 05:32:17;;;;;;;0.50;0.50;;;18.20;99.90;;;;;;4993755;28;20076;-90
2023/09/05 05:34:43;;;;;;;0.60;0.60;;;18.80;99.90;;;;;;4994851;28;20048;-90
2023/09/05 05:37:09;;;;;;;0.68;0.68;;;19.50;99.90;;;;;;4993729;28;20145;-90
2023/09/05 05:39:35;;;;;;;0.70;0.70;;;19.90;99.90;;;;;;5012208;28;20100;-91
2023/09/05 05:42:01;;;;;;;0.95;0.95;;;20.30;99.90;;;;;;4990223;28;20041;-89
2023/09/05 05:44:42;;;;;;;0.80;0.80;;;20.70;99.90;;;;;;5003976;28;20049;-90
2023/09/05 05:47:08;;;;;;;0.80;0.80;;;20.80;99.90;;;;;;5010829;28;20042;-89
2023/09/05 05:49:34;;;;;;;0.80;0.80;;;20.90;99.90;;;;;;5009154;28;20071;-89
2023/09/05 05:52:00;;;;;;;0.73;0.73;;;19.30;99.90;;;;;;4981282;28;20455;-89
2023/09/05 05:54:26;;;;;;;0.70;0.70;;;18.20;99.90;;;;;;4994306;28;20046;-90
2023/09/05 05:56:53;;;;;;;0.80;0.80;;;18.00;99.90;;;;;;4993277;28;20057;-90
2023/09/05 05:59:19;;;;;;;0.80;0.80;;;17.70;99.90;;;;;;4991984;28;20403;-89
2023/09/05 06:01:44;;;;;;;0.70;0.70;;;17.60;99.90;;;;;;4990879;28;20054;-88
2023/09/05 06:04:12;;;;;;;0.80;0.80;;;17.50;99.90;;;;;;4974717;28;20091;-88
2023/09/05 06:06:42;;;;;;;0.73;0.73;;;17.40;99.90;;;;;;4972646;28;20053;-91
2023/09/05 06:09:09;;;;;;;0.80;0.80;;;17.60;99.90;;;;;;4976879;28;20132;-89
2023/09/05 06:11:38;;;;;;;0.80;0.80;;;17.50;99.90;;;;;;4991962;28;20180;-89
2023/09/05 06:14:06;;;;;;;0.70;0.70;;;17.70;99.90;;;;;;4985881;28;20043;-90
2023/09/05 06:16:35;;;;;;;0.70;0.70;;;17.80;99.90;;;;;;4967504;28;20050;-89
2023/09/05 06:19:04;;;;;;;0.80;0.80;;;17.80;99.90;;;;;;4986006;28;20054;-86
2023/09/05 06:21:35;;;;;;;0.70;0.70;;;17.80;99.90;;;;;;4972114;28;20133;-89
2023/09/05 06:24:01;;;;;;;0.70;0.70;;;18.00;99.90;;;;;;4978773;28;20129;-92
2023/09/05 06:26:26;;;;;;;0.70;0.70;;;18.00;99.90;;;;;;4990925;28;20903;-88
2023/09/05 06:28:53;;;;;;;0.60;0.60;;;18.10;99.90;;;;;;4990167;28;20053;-87
2023/09/05 06:31:20;;;;;;;0.68;0.68;;;18.30;99.90;;;;;;4984755;28;20046;-87
2023/09/05 06:33:45;;;;;;;0.70;0.70;;;18.30;99.90;;;;;;4989580;28;20053;-88
2023/09/05 06:36:11;;;;;;;0.60;0.60;;;18.30;99.90;;;;;;4985937;28;20047;-87
2023/09/05 06:38:43;;;;;;;0.60;0.60;;;18.40;99.90;;;;;;4969555;28;20047;-91
2023/09/05 06:41:12;;;;;;;0.60;0.60;;;18.40;99.90;;;;;;4972084;28;20049;-89
2023/09/05 06:43:50;;;;;;;0.60;0.60;;;18.40;99.90;;;;;;4974837;28;20045;-95
2023/09/05 06:46:15;;;;;;;0.60;0.60;;;18.60;99.90;;;;;;4963120;28;20046;-89
2023/09/05 06:48:41;;;;;;;0.60;0.60;;;18.80;99.90;;;;;;4984815;28;20041;-91
2023/09/05 06:51:07;;;;;;;0.50;0.50;;;18.80;99.90;;;;;;4986974;28;20053;-88
2023/09/05 06:53:33;;;;;;;0.50;0.50;;;18.90;99.90;;;;;;4983073;28;20061;-86
2023/09/05 06:55:59;;;;;;;0.60;0.60;;;19.10;99.90;;;;;;4985152;28;20042;-85
2023/09/05 06:58:26;;;;;;;0.50;0.50;;;19.10;99.90;;;;;;4983187;28;20042;-86
2023/09/05 07:00:55;;;;;;;0.50;0.50;;;19.20;99.90;;;;;;4969269;28;20108;-87
2023/09/05 07:03:25;;;;;;;0.55;0.55;;;19.30;99.90;;;;;;4982625;28;20041;-87
2023/09/05 07:05:54;;;;;;;0.50;0.50;;;19.40;99.90;;;;;;5005346;28;20042;-87
2023/09/05 07:08:22;;;;;;;0.50;0.50;;;19.40;99.90;;;;;;4990836;28;20052;-87
2023/09/05 07:10:48;;;;;;;0.50;0.50;;;19.50;99.90;;;;;;4988557;28;20053;-87
2023/09/05 07:13:14;;;;;;;0.50;0.50;;;19.70;99.90;;;;;;4990548;28;20045;-87
2023/09/05 07:15:40;;;;;;;0.40;0.40;;;20.00;99.90;;;;;;4989589;28;20054;-87
2023/09/05 07:18:05;;;;;;;0.50;0.50;;;20.10;99.90;;;;;;4988989;28;20060;-86
2023/09/05 07:20:32;;;;;;;0.45;0.45;;;20.10;99.90;;;;;;4992504;28;20050;-87
2023/09/05 07:22:57;;;;;;;0.50;0.50;;;20.30;99.90;;;;;;4978514;28;20045;-88
2023/09/05 07:25:23;;;;;;;0.40;0.40;;;20.40;99.90;;;;;;4996785;28;20509;-88
2023/09/05 07:27:49;;;;;;;0.50;0.50;;;20.40;99.90;;;;;;4987483;28;20081;-87
2023/09/05 07:30:16;;;;;;;0.50;0.50;;;20.60;99.90;;;;;;4990550;28;20061;-88
2023/09/05 07:32:43;;;;;;;0.50;0.50;;;20.70;99.90;;;;;;4989969;28;20034;-88
2023/09/05 07:35:08;;;;;;;0.50;0.50;;;20.70;99.90;;;;;;4994025;28;20054;-92
2023/09/05 07:37:34;;;;;;;0.50;0.50;;;20.60;99.90;;;;;;4979114;28;20056;-90
2023/09/05 07:40:00;;;;;;;0.50;0.50;;;20.90;99.90;;;;;;4992348;28;20141;-92
2023/09/05 07:42:31;;;;;;;0.55;0.55;;;21.20;99.90;;;;;;4981481;28;20098;-93
2023/09/05 07:44:56;;;;;;;0.52;0.52;;;21.30;99.90;;;;;;4990754;28;20643;-91
2023/09/05 07:47:22;;;;;;;0.60;0.60;;;21.30;99.90;;;;;;4981685;28;20053;-91
2023/09/05 07:49:51;;;;;;;0.60;0.60;;;21.40;99.90;;;;;;4995159;28;20064;-88
2023/09/05 07:52:16;;;;;;;0.60;0.60;;;21.60;99.90;;;;;;4993352;28;20168;-88
2023/09/05 07:54:42;;;;;;;0.60;0.60;;;21.80;99.90;;;;;;4975298;28;20133;-91
2023/09/05 07:57:08;;;;;;;0.60;0.60;;;21.90;99.90;;;;;;4991722;28;20053;-89
2023/09/05 07:59:46;;;;;;;0.60;0.60;;;22.00;99.90;;;;;;4976167;28;20037;-89
2023/09/05 08:02:12;;;;;;;0.60;0.60;;;22.20;99.90;;;;;;4975213;28;20396;-90
2023/09/05 08:04:38;;;;;;;0.50;0.50;;;22.30;99.90;;;;;;4990831;28;20100;-89
2023/09/05 08:07:16;;;;;;;0.50;0.50;;;22.30;99.90;;;;;;4991768;28;20054;-87
2023/09/05 08:09:43;;;;;;;0.40;0.40;;;22.50;99.90;;;;;;4982738;28;20143;-87
2023/09/05 08:12:09;;;;;;;0.60;0.60;;;22.80;99.90;;;;;;4988801;28;20136;-89
2023/09/05 08:14:34;;;;;;;0.40;0.40;;;23.10;99.90;;;;;;4992516;28;20117;-89
2023/09/05 08:17:00;;;;;;;0.40;0.40;;;23.20;99.90;;;;;;4991271;28;20111;-91
2023/09/05 08:19:26;;;;;;;0.40;0.40;;;23.50;99.90;;;;;;4976630;28;20507;-90
2023/09/05 08:21:52;;;;;;;0.40;0.40;;;23.60;99.90;;;;;;4973152;28;20119;-89
2023/09/05 08:24:17;;;;;;;0.40;0.40;;;23.50;99.90;;;;;;4988478;28;20049;-88
2023/09/05 08:26:43;;;;;;;0.50;0.50;;;23.80;99.90;;;;;;4964275;28;20046;-89
2023/09/05 08:29:09;;;;;;;0.30;0.30;;;23.90;99.90;;;;;;4992153;28;20054;-89
2023/09/05 08:31:35;;;;;;;0.40;0.40;;;24.20;99.90;;;;;;4989517;28;20045;-89
2023/09/05 08:34:00;;;;;;;0.40;0.40;;;24.10;99.90;;;;;;4978157;28;20491;-91
2023/09/05 08:36:32;;;;;;;0.40;0.40;;;24.20;99.90;;;;;;4979515;28;20418;-96
2023/09/05 08:38:58;;;;;;;0.30;0.30;;;24.20;99.90;;;;;;4975069;28;20049;-90
2023/09/05 08:41:23;;;;;;;0.32;0.32;;;24.10;99.90;;;;;;4991020;28;20037;-90
2023/09/05 08:43:53;;;;;;;0.32;0.32;;;24.50;99.90;;;;;;4969694;28;20038;-90
2023/09/05 08:46:20;;;;;;;0.40;0.40;;;24.80;99.90;;;;;;4982146;28;20042;-92
2023/09/05 08:48:52;;;;;;;0.30;0.30;;;25.00;99.90;;;;;;4990499;28;20241;-89
2023/09/05 08:51:19;;;;;;;0.30;0.30;;;25.30;99.90;;;;;;4992683;28;20038;-92
2023/09/05 08:53:54;;;;;;;0.30;0.30;;;25.40;99.90;;;;;;4987921;28;20053;-92
2023/09/05 08:56:20;;;;;;;0.30;0.30;;;25.10;99.90;;;;;;4977082;28;20057;-90
2023/09/05 08:58:47;;;;;;;0.30;0.30;;;25.20;99.90;;;;;;4974704;28;20148;-89
2023/09/05 09:01:31;;;;;;;0.30;0.30;;;25.30;99.90;;;;;;4977302;28;20677;-95
2023/09/05 09:03:57;;;;;;;0.30;0.30;;;25.40;99.90;;;;;;4971827;28;20046;-90
2023/09/05 09:06:24;;;;;;;0.30;0.30;;;25.40;99.90;;;;;;4993033;28;20053;-91
2023/09/05 09:08:50;;;;;;;0.30;0.30;;;25.30;99.90;;;;;;4992834;28;20053;-92
2023/09/05 09:11:19;;;;;;;0.30;0.30;;;25.40;99.90;;;;;;4979018;28;20077;-87
2023/09/05 09:13:50;;;;;;;0.30;0.30;;;25.40;99.90;;;;;;4991353;28;20133;-91
2023/09/05 09:16:19;;;;;;;0.30;0.30;;;25.40;99.90;;;;;;4972999;28;20041;-89
2023/09/05 09:18:49;;;;;;;0.30;0.30;;;25.70;99.90;;;;;;4992352;28;20065;-93
2023/09/05 09:21:20;;;;;;;0.30;0.30;;;25.50;99.90;;;;;;4973300;28;20104;-90
2023/09/05 09:23:45;;;;;;;0.30;0.30;;;25.60;99.90;;;;;;4993493;28;20056;-91
2023/09/05 09:26:13;;;;;;;0.30;0.30;;;26.00;99.90;;;;;;4988970;28;20047;-88
2023/09/05 09:28:39;;;;;;;0.30;0.30;;;26.10;99.90;;;;;;4991456;28;20050;-89
2023/09/05 09:31:11;;;;;;;0.30;0.30;;;26.20;99.90;;;;;;4989884;28;20038;-87
2023/09/05 09:33:37;;;;;;;0.30;0.30;;;26.10;99.90;;;;;;4989843;28;20049;-87
2023/09/05 09:36:07;;;;;;;0.30;0.30;;;26.10;99.90;;;;;;4987996;28;20050;-91
2023/09/05 09:38:33;;;;;;;0.30;0.30;;;26.30;99.90;;;;;;4988668;28;20321;-87
2023/09/05 09:41:01;;;;;;;0.30;0.30;;;26.00;99.90;;;;;;4988231;28;20057;-87
2023/09/05 09:43:31;;;;;;;0.30;0.30;;;26.10;99.90;;;;;;4987497;28;20046;-93
2023/09/05 09:46:03;;;;;;;0.30;0.30;;;26.70;99.90;;;;;;4972793;28;20128;-90
2023/09/05 09:48:30;;;;;;;0.30;0.30;;;27.10;99.90;;;;;;4993039;28;20042;-89
2023/09/05 09:50:57;;;;;;;0.30;0.30;;;27.20;99.90;;;;;;4976344;28;20124;-90
2023/09/05 09:53:34;;;;;;;0.30;0.30;;;27.20;99.90;;;;;;4989455;28;20111;-91
2023/09/05 09:56:04;;;;;;;0.30;0.30;;;27.20;99.90;;;;;;4992128;28;20076;-92
2023/09/05 09:58:31;;;;;;;0.30;0.30;;;27.30;99.90;;;;;;5006705;28;20475;-93
2023/09/05 10:00:58;;;;;;;0.30;0.30;;;27.30;99.90;;;;;;4995276;28;20046;-93
2023/09/05 10:03:27;;;;;;;0.30;0.30;;;27.20;99.90;;;;;;4976426;28;20121;-95
2023/09/05 10:05:55;;;;;;;0.30;0.30;;;26.90;99.90;;;;;;4978444;28;20076;-94
2023/09/05 10:08:25;;;;;;;0.30;0.30;;;27.00;99.90;;;;;;4975704;28;20511;-92
2023/09/05 10:10:52;;;;;;;0.30;0.30;;;27.30;99.90;;;;;;4989292;28;20100;-90
2023/09/05 10:13:21;;;;;;;0.30;0.30;;;27.30;99.90;;;;;;4974298;28;20100;-88
2023/09/05 10:15:52;;;;;;;0.22;0.22;;;27.20;99.90;;;;;;4991683;28;20050;-93
2023/09/05 10:18:19;;;;;;;0.30;0.30;;;27.50;99.90;;;;;;4986990;28;20050;-86
2023/09/05 10:20:46;;;;;;;0.30;0.30;;;27.20;99.90;;;;;;4978645;28;20048;-88
2023/09/05 10:23:14;;;;;;;0.30;0.30;;;27.40;99.90;;;;;;4990948;28;20046;-89
2023/09/05 10:25:41;;;;;;;0.30;0.30;;;27.40;99.90;;;;;;4980730;28;20054;-90
2023/09/05 10:28:07;;;;;;;0.20;0.20;;;27.40;99.90;;;;;;4989357;28;20389;-89
2023/09/05 10:30:46;;;;;;;0.30;0.30;;;27.50;99.90;;;;;;4989761;28;20049;-89
2023/09/05 10:33:17;;;;;;;0.30;0.30;;;27.70;99.90;;;;;;4988766;28;20554;-91
2023/09/05 10:35:45;;;;;;;0.30;0.30;;;28.10;99.90;;;;;;4992475;28;20050;-90
2023/09/05 10:38:15;;;;;;;0.30;0.30;;;27.90;99.90;;;;;;4988694;28;20444;-91
2023/09/05 10:40:41;;;;;;;0.30;0.30;;;27.90;99.90;;;;;;4987419;28;20057;-89
2023/09/05 10:43:09;;;;;;;0.30;0.30;;;28.10;99.90;;;;;;5006250;28;20038;-92
2023/09/05 10:45:37;;;;;;;0.30;0.30;;;28.40;99.90;;;;;;4991281;28;20085;-88
2023/09/05 10:48:17;;;;;;;0.20;0.20;;;28.30;99.90;;;;;;4976960;28;20531;-88
2023/09/05 10:51:08;;;;;;;0.20;0.20;;;28.40;99.90;;;;;;4987396;28;20060;-91
2023/09/05 10:53:35;;;;;;;0.30;0.30;;;28.60;99.90;;;;;;4964958;28;20061;-93
2023/09/05 10:56:01;;;;;;;0.20;0.20;;;28.90;99.90;;;;;;4987144;28;20057;-93
2023/09/05 10:58:51;;;;;;;0.30;0.30;;;28.50;99.90;;;;;;4987078;28;20041;-92
2023/09/05 11:01:32;;;;;;;0.22;0.22;;;28.30;99.90;;;;;;5006538;28;20050;-90
2023/09/05 11:04:07;;;;;;;0.30;0.30;;;28.70;99.90;;;;;;4991222;28;20056;-88
2023/09/05 11:06:42;;;;;;;0.20;0.20;;;28.70;99.90;;;;;;4989539;28;20042;-90
2023/09/05 11:09:12;;;;;;;0.30;0.30;;;28.60;99.90;;;;;;4977163;28;20057;-89
2023/09/05 11:11:40;;;;;;;0.30;0.30;;;28.60;99.90;;;;;;4997004;28;20447;-89
2023/09/05 11:14:06;;;;;;;0.30;0.30;;;28.70;99.90;;;;;;4991367;28;20128;-88
2023/09/05 11:16:52;;;;;;;0.30;0.30;;;28.80;99.90;;;;;;4989038;28;20073;-93
2023/09/05 11:19:38;;;;;;;0.20;0.20;;;29.00;99.90;;;;;;4977771;28;20566;-89
2023/09/05 11:22:15;;;;;;;0.30;0.30;;;29.20;99.90;;;;;;4990135;28;21776;-93
2023/09/05 11:24:49;;;;;;;0.30;0.30;;;28.80;99.90;;;;;;4992311;28;20103;-93
2023/09/05 11:27:18;;;;;;;0.20;0.20;;;28.60;99.90;;;;;;5011005;28;20042;-92
2023/09/05 11:29:45;;;;;;;0.30;0.30;;;28.90;99.90;;;;;;4989693;28;20045;-95
2023/09/05 11:32:12;;;;;;;0.30;0.30;;;28.80;99.90;;;;;;4970964;28;20077;-91
2023/09/05 11:34:48;;;;;;;0.30;0.30;;;28.80;99.90;;;;;;4976688;28;20695;-95
2023/09/05 11:37:15;;;;;;;0.30;0.30;;;29.40;99.90;;;;;;4976171;28;20045;-91
2023/09/05 11:39:46;;;;;;;0.20;0.20;;;29.40;99.90;;;;;;4972075;28;20038;-90
2023/09/05 11:42:30;;;;;;;0.30;0.30;;;29.10;99.90;;;;;;4987843;28;20053;-91
2023/09/05 11:44:58;;;;;;;0.30;0.30;;;29.10;99.90;;;;;;4990335;28;20045;-93
2023/09/05 11:47:26;;;;;;;0.30;0.30;;;29.30;99.90;;;;;;4973680;28;20054;-92
2023/09/05 11:49:53;;;;;;;0.20;0.20;;;29.60;99.90;;;;;;4979035;28;20050;-96
2023/09/05 11:52:20;;;;;;;0.30;0.30;;;29.50;99.90;;;;;;4979292;28;20050;-93
2023/09/05 11:54:50;;;;;;;0.30;0.30;;;29.40;99.90;;;;;;4996734;28;20054;-91
2023/09/05 11:57:21;;;;;;;0.30;0.30;;;29.50;99.90;;;;;;5000435;28;20053;-91
2023/09/05 11:59:47;;;;;;;0.30;0.30;;;29.20;99.90;;;;;;4996151;28;20088;-91
2023/09/05 12:02:15;;;;;;;0.30;0.30;;;29.10;99.90;;;;;;4992681;28;20080;-92
2023/09/05 12:04:42;;;;;;;0.20;0.20;;;29.60;99.90;;;;;;4991523;28;20042;-91
2023/09/05 12:07:08;;;;;;;0.30;0.30;;;29.10;99.90;;;;;;4993331;28;20037;-90
2023/09/05 12:09:34;;;;;;;0.20;0.20;;;29.50;99.90;;;;;;4979948;28;20449;-90
2023/09/05 12:12:07;;;;;;;0.25;0.25;;;29.60;99.90;;;;;;4991373;28;20045;-89
2023/09/05 12:14:49;;;;;;;0.30;0.30;;;29.60;99.90;;;;;;4994016;28;20177;-88
2023/09/05 12:17:20;;;;;;;0.30;0.30;;;29.40;99.90;;;;;;4995873;28;20042;-88
2023/09/05 12:19:47;;;;;;;0.22;0.22;;;29.60;99.90;;;;;;4986061;28;20050;-90
2023/09/05 12:22:24;;;;;;;0.20;0.20;;;29.60;99.90;;;;;;4991511;28;20061;-91
2023/09/05 12:25:10;;;;;;;0.20;0.20;;;30.00;99.90;;;;;;4988019;28;20046;-88
2023/09/05 12:27:36;;;;;;;0.30;0.30;;;29.70;99.90;;;;;;4972215;28;20073;-91
2023/09/05 12:30:02;;;;;;;0.30;0.30;;;29.70;99.90;;;;;;4988115;28;20050;-87
2023/09/05 12:32:28;;;;;;;0.30;0.30;;;30.20;99.90;;;;;;4991919;28;20049;-90
2023/09/05 12:34:54;;;;;;;0.20;0.20;;;29.80;99.90;;;;;;4971954;28;20042;-89
2023/09/05 12:37:20;;;;;;;0.30;0.30;;;29.80;99.90;;;;;;4989255;28;20124;-89
2023/09/05 12:39:45;;;;;;;0.20;0.20;;;29.80;99.90;;;;;;4989220;28;20050;-90
2023/09/05 12:42:11;;;;;;;0.30;0.30;;;30.10;99.90;;;;;;4988924;28;20046;-89
2023/09/05 12:44:37;;;;;;;0.20;0.20;;;29.80;99.90;;;;;;4988340;28;20053;-89
2023/09/05 12:47:03;;;;;;;0.20;0.20;;;29.60;99.90;;;;;;4990687;28;20046;-89
2023/09/05 12:49:30;;;;;;;0.20;0.20;;;29.60;99.90;;;;;;4991277;28;20161;-88
2023/09/05 12:51:57;;;;;;;0.30;0.30;;;29.70;99.90;;;;;;4977390;28;20045;-90